Air Resources Laboratory banner image
Air Resources Laboratory web site National Oceanic and Atmospheric Administration (NOAA)

ky metar


KBWG 191253Z AUTO 08003KT 4SM BR CLR 23/22 A2996 RMK AO2 SLP141 T02330222=
KCVG 191252Z 06006KT 9SM FEW090 23/20 A2998 RMK AO2 SLP140 T02280200 $=
KEHR 191256Z AUTO 03004KT 10SM CLR 23/22 A2996 RMK AO2 SLP150 T02280217=
KEKX 191255Z AUTO 00000KT 5SM BR SCT004 21/21 A2997 RMK AO2 T02080208=
KFFT 191253Z AUTO 04003KT 6SM BR BKN002 21/21 A2997 RMK AO2 SLP140 T02110206=
KFTK 191256Z AUTO 07004KT 10SM CLR 22/22 A2998 RMK AO2 SLP149 T02190219=
KHOP 191256Z AUTO 00000KT 10SM CLR 23/22 A2995 RMK AO2 DZB54 SLP139 T02330215 $=
KJKL 191253Z AUTO 00000KT 9SM BKN002 OVC009 22/21 A3000 RMK AO2 SLP144
 T02170206=
KLEX 191254Z 06003KT 4SM BR SCT004 22/21 A2998 RMK AO2 SLP144 T02220211=
KLOU 191253Z 00000KT 8SM CLR 24/22 A2996 RMK AO2 SLP141 T02390222=
KLOZ 191253Z AUTO 22004KT 10SM OVC003 21/21 A3000 RMK AO2 CIG 003V008 SLP147
 T02110211=
KOWB 191256Z 10003KT 6SM BR CLR 23/22 A2996 RMK AO2 SLP151 VIS SW 1 1/2
 T02330217=
KPAH 191253Z 06003KT 8SM CLR 23/22 A2994 RMK AO2 SLP134 T02330217 $=
KSDF 191256Z 00000KT 8SM CLR 23/21 A2996 RMK AO2 SLP142 T02330206=
KSME 191255Z AUTO 00000KT 3SM -RA OVC003 22/22 A3000 RMK AO2=